createdAt,value
2023-02-24T00:00:29.988Z,1.10
2023-02-24T00:01:29.997Z,1.30
2023-02-24T00:02:30.115Z,1.20
2023-02-24T00:03:30.062Z,4.60
2023-02-24T00:04:30.064Z,6.70
2023-02-24T00:05:30.045Z,6.50
2023-02-24T00:06:30.048Z,1.00
2023-02-24T00:07:30.078Z,1.40
2023-02-24T00:08:30.067Z,1.20
2023-02-24T00:09:30.123Z,1.00
2023-02-24T00:10:30.096Z,2.60
2023-02-24T00:11:30.113Z,2.50
2023-02-24T00:12:30.115Z,1.00
2023-02-24T00:13:30.131Z,1.30
2023-02-24T00:14:30.161Z,1.50
2023-02-24T00:15:30.154Z,1.20
2023-02-24T00:16:30.235Z,3.10
2023-02-24T00:17:30.215Z,1.80
2023-02-24T00:18:30.184Z,1.10
2023-02-24T00:19:30.206Z,9.10
2023-02-24T00:20:30.232Z,2.60
2023-02-24T00:21:30.223Z,1.10
2023-02-24T00:22:30.236Z,2.20
2023-02-24T00:23:30.250Z,1.00
2023-02-24T00:24:30.266Z,1.10
2023-02-24T00:25:30.282Z,1.20
2023-02-24T00:26:30.287Z,1.20
2023-02-24T00:27:30.311Z,1.00
2023-02-24T00:28:30.303Z,1.00
2023-02-24T00:29:30.338Z,2.20
2023-02-24T00:30:30.325Z,1.00
2023-02-24T00:31:30.461Z,1.00
2023-02-24T00:32:30.596Z,1.00
2023-02-24T00:33:30.375Z,1.50
2023-02-24T00:34:30.384Z,1.40
2023-02-24T00:35:30.409Z,1.50
2023-02-24T00:36:30.410Z,1.10
2023-02-24T00:37:30.434Z,2.20
2023-02-24T00:38:30.433Z,1.30
2023-02-24T00:39:30.494Z,1.60
2023-02-24T00:40:30.480Z,1.70
2023-02-24T00:41:30.482Z,1.30
2023-02-24T00:42:30.482Z,1.70
2023-02-24T00:43:30.505Z,1.10
2023-02-24T00:44:30.507Z,1.30
2023-02-24T00:45:30.531Z,5.80
2023-02-24T00:46:30.572Z,1.10
2023-02-24T00:47:30.552Z,1.00
2023-02-24T00:48:30.553Z,2.60
2023-02-24T00:49:30.581Z,1.90
2023-02-24T00:50:30.588Z,1.30
2023-02-24T00:51:30.606Z,1.00
2023-02-24T00:52:30.606Z,5.00
2023-02-24T00:53:30.628Z,1.90
2023-02-24T00:54:30.626Z,2.40
2023-02-24T00:55:30.649Z,2.00
2023-02-24T00:56:30.656Z,1.20
2023-02-24T00:57:30.676Z,1.50
2023-02-24T00:58:30.687Z,1.40
2023-02-24T00:59:30.722Z,1.00
2023-02-24T01:00:30.704Z,2.90
2023-02-24T01:01:30.758Z,1.00
2023-02-24T01:02:30.722Z,1.30
2023-02-24T01:03:30.777Z,3.20
2023-02-24T01:04:30.750Z,5.30
2023-02-24T01:05:30.772Z,2.30
2023-02-24T01:06:30.779Z,3.80
2023-02-24T01:07:30.798Z,1.00
2023-02-24T01:08:30.796Z,1.00
2023-02-24T01:09:30.854Z,1.00
2023-02-24T01:10:30.825Z,1.20
2023-02-24T01:11:30.864Z,0.90
2023-02-24T01:12:30.847Z,4.80
2023-02-24T01:13:30.869Z,1.10
2023-02-24T01:14:30.881Z,1.20
2023-02-24T01:15:30.886Z,1.10
2023-02-24T01:16:30.901Z,1.10
2023-02-24T01:17:30.915Z,1.00
2023-02-24T01:18:30.918Z,2.80
2023-02-24T01:19:30.942Z,1.00
2023-02-24T01:20:30.949Z,1.00
2023-02-24T01:21:30.982Z,1.10
2023-02-24T01:22:30.964Z,1.10
2023-02-24T01:23:30.996Z,2.00
2023-02-24T01:24:30.986Z,1.50
2023-02-24T01:25:31.011Z,1.30
2023-02-24T01:26:31.012Z,1.00
2023-02-24T01:27:31.036Z,1.00
2023-02-24T01:28:31.040Z,1.00
2023-02-24T01:29:31.078Z,1.00
2023-02-24T01:30:31.063Z,0.90
2023-02-24T01:31:31.171Z,1.50
2023-02-24T01:32:31.217Z,1.40
2023-02-24T01:33:31.106Z,1.00
2023-02-24T01:34:31.109Z,3.20
2023-02-24T01:35:31.128Z,1.00
2023-02-24T01:36:31.136Z,1.10
2023-02-24T01:37:31.157Z,1.10
2023-02-24T01:38:31.159Z,1.00
2023-02-24T01:39:31.189Z,1.50
2023-02-24T01:40:31.181Z,1.10
2023-02-24T01:41:31.240Z,1.00
2023-02-24T01:42:31.212Z,1.10
2023-02-24T01:43:31.229Z,1.00
2023-02-24T01:44:31.234Z,2.10
2023-02-24T01:45:31.253Z,1.00
2023-02-24T01:46:31.352Z,1.00
2023-02-24T01:47:31.339Z,1.50
2023-02-24T01:48:31.282Z,1.00
2023-02-24T01:49:31.304Z,1.00
2023-02-24T01:50:31.308Z,1.10
2023-02-24T01:51:31.329Z,1.40
2023-02-24T01:52:31.332Z,0.90
2023-02-24T01:53:31.354Z,1.30
2023-02-24T01:54:31.360Z,1.40
2023-02-24T01:55:31.372Z,1.00
2023-02-24T01:56:31.376Z,1.00
2023-02-24T01:57:31.413Z,1.70
2023-02-24T01:58:31.403Z,1.30
2023-02-24T01:59:31.426Z,1.40
2023-02-24T02:00:31.430Z,2.10
2023-02-24T02:01:31.459Z,4.90
2023-02-24T02:02:31.546Z,1.20
2023-02-24T02:03:31.473Z,1.00
2023-02-24T02:04:31.474Z,1.80
2023-02-24T02:05:31.493Z,1.70
2023-02-24T02:06:31.517Z,2.00
2023-02-24T02:07:31.522Z,1.00
2023-02-24T02:08:31.523Z,2.10
2023-02-24T02:09:31.554Z,2.20
2023-02-24T02:10:31.546Z,1.80
2023-02-24T02:11:31.563Z,2.20
2023-02-24T02:12:31.595Z,1.90
2023-02-24T02:13:31.616Z,1.10
2023-02-24T02:14:31.596Z,1.10
2023-02-24T02:15:31.618Z,1.40
2023-02-24T02:16:31.668Z,1.00
2023-02-24T02:17:31.631Z,1.80
2023-02-24T02:18:31.656Z,1.20
2023-02-24T02:19:31.658Z,1.00
2023-02-24T02:20:31.663Z,1.10
2023-02-24T02:21:31.679Z,1.30
2023-02-24T02:22:31.685Z,1.50
2023-02-24T02:23:31.707Z,1.10
2023-02-24T02:24:31.743Z,1.00
2023-02-24T02:25:31.726Z,3.80
2023-02-24T02:26:31.734Z,1.10
2023-02-24T02:27:31.755Z,1.30
2023-02-24T02:28:31.832Z,1.70
2023-02-24T02:29:31.777Z,1.50
2023-02-24T02:30:31.809Z,1.80
2023-02-24T02:31:31.919Z,1.10
2023-02-24T02:32:32.012Z,1.30
2023-02-24T02:33:31.825Z,1.00
2023-02-24T02:34:31.832Z,1.30
2023-02-24T02:35:31.842Z,1.20
2023-02-24T02:36:31.855Z,1.30
2023-02-24T02:37:31.872Z,1.10
2023-02-24T02:38:31.875Z,1.30
2023-02-24T02:39:31.906Z,3.30
2023-02-24T02:40:31.896Z,2.60
2023-02-24T02:41:31.929Z,1.00
2023-02-24T02:42:31.921Z,1.00
2023-02-24T02:43:31.939Z,1.10
2023-02-24T02:44:31.948Z,2.70
2023-02-24T02:45:32.001Z,1.00
2023-02-24T02:46:31.966Z,1.00
2023-02-24T02:47:31.988Z,1.80
2023-02-24T02:48:31.985Z,1.00
2023-02-24T02:49:32.014Z,1.00
2023-02-24T02:50:32.020Z,1.10
2023-02-24T02:51:32.039Z,1.00
2023-02-24T02:52:32.039Z,1.50
2023-02-24T02:53:32.069Z,1.20
2023-02-24T02:54:32.065Z,4.10
2023-02-24T02:55:32.094Z,2.10
2023-02-24T02:56:32.088Z,4.80
2023-02-24T02:57:32.109Z,1.10
2023-02-24T02:58:32.117Z,1.00
2023-02-24T02:59:32.130Z,1.00
2023-02-24T03:00:32.140Z,1.10
2023-02-24T03:01:32.249Z,1.10
2023-02-24T03:02:32.159Z,2.00
2023-02-24T03:03:32.208Z,1.00
2023-02-24T03:04:32.217Z,1.00
2023-02-24T03:05:32.213Z,1.30
2023-02-24T03:06:32.212Z,1.50
2023-02-24T03:07:32.230Z,1.60
2023-02-24T03:08:32.230Z,1.50
2023-02-24T03:09:32.254Z,1.00
2023-02-24T03:10:32.265Z,1.10
2023-02-24T03:11:32.287Z,1.00
2023-02-24T03:12:32.279Z,1.00
2023-02-24T03:13:32.324Z,1.00
2023-02-24T03:14:32.311Z,1.50
2023-02-24T03:15:32.328Z,10.80
2023-02-24T03:16:32.383Z,1.20
2023-02-24T03:17:32.355Z,2.40
2023-02-24T03:18:32.371Z,1.00
2023-02-24T03:19:32.397Z,1.00
2023-02-24T03:20:32.380Z,1.00
2023-02-24T03:21:32.404Z,1.00
2023-02-24T03:22:32.411Z,1.20
2023-02-24T03:23:32.426Z,1.10
2023-02-24T03:24:32.429Z,1.00
2023-02-24T03:25:32.453Z,1.10
2023-02-24T03:26:32.455Z,1.00
2023-02-24T03:27:32.478Z,1.10
2023-02-24T03:28:32.487Z,1.80
2023-02-24T03:29:32.502Z,1.20
2023-02-24T03:30:32.594Z,1.10
2023-02-24T03:31:32.555Z,1.00
2023-02-24T03:32:32.561Z,1.00
2023-02-24T03:33:32.570Z,1.00
2023-02-24T03:34:32.555Z,2.80
2023-02-24T03:35:32.580Z,2.80
2023-02-24T03:36:32.582Z,1.00
2023-02-24T03:37:32.604Z,5.80
2023-02-24T03:38:32.624Z,1.00
2023-02-24T03:39:32.627Z,1.00
2023-02-24T03:40:32.628Z,1.00
2023-02-24T03:41:32.652Z,1.20
2023-02-24T03:42:32.695Z,1.20
2023-02-24T03:43:32.683Z,1.30
2023-02-24T03:44:32.676Z,0.90
2023-02-24T03:45:32.701Z,1.00
2023-02-24T03:46:32.705Z,1.00
2023-02-24T03:47:32.728Z,1.00
2023-02-24T03:48:32.726Z,1.00
2023-02-24T03:49:32.763Z,1.10
2023-02-24T03:50:32.755Z,1.40
2023-02-24T03:51:32.776Z,1.10
2023-02-24T03:52:32.774Z,1.00
2023-02-24T03:53:32.802Z,1.50
2023-02-24T03:54:32.798Z,1.50
2023-02-24T03:55:32.823Z,1.00
2023-02-24T03:56:32.827Z,1.30
2023-02-24T03:57:32.845Z,1.00
2023-02-24T03:58:32.847Z,1.00
2023-02-24T03:59:32.863Z,1.20
2023-02-24T04:00:32.870Z,1.40
2023-02-24T04:01:32.889Z,1.00
2023-02-24T04:02:32.989Z,1.00
2023-02-24T04:03:32.914Z,1.00
2023-02-24T04:04:32.973Z,1.00
2023-02-24T04:05:32.941Z,1.00
2023-02-24T04:06:32.955Z,1.10
2023-02-24T04:07:32.956Z,1.10
2023-02-24T04:08:32.972Z,3.00
2023-02-24T04:09:32.978Z,1.00
2023-02-24T04:10:32.998Z,1.00
2023-02-24T04:11:33.002Z,1.00
2023-02-24T04:12:33.048Z,1.00
2023-02-24T04:13:33.018Z,1.00
2023-02-24T04:14:33.042Z,2.40
2023-02-24T04:15:33.110Z,1.10
2023-02-24T04:16:33.071Z,2.00
2023-02-24T04:17:33.071Z,1.10
2023-02-24T04:18:33.090Z,0.90
2023-02-24T04:19:33.104Z,1.00
2023-02-24T04:20:33.121Z,1.10
2023-02-24T04:21:33.115Z,1.70
2023-02-24T04:22:33.157Z,1.10
2023-02-24T04:23:33.155Z,1.00
2023-02-24T04:24:33.158Z,1.00
2023-02-24T04:25:33.165Z,1.00
2023-02-24T04:26:34.468Z,1.00
2023-02-24T04:27:33.188Z,1.00
2023-02-24T04:28:33.208Z,1.30
2023-02-24T04:29:33.215Z,1.10
2023-02-24T04:30:33.470Z,1.00
2023-02-24T04:31:33.342Z,2.80
2023-02-24T04:32:33.370Z,1.10
2023-02-24T04:33:33.259Z,1.00
2023-02-24T04:34:33.283Z,1.20
2023-02-24T04:35:33.292Z,1.10
2023-02-24T04:36:33.305Z,2.50
2023-02-24T04:37:33.308Z,1.00
2023-02-24T04:38:33.323Z,1.00
2023-02-24T04:39:33.333Z,1.00
2023-02-24T04:40:33.369Z,1.20
2023-02-24T04:41:33.352Z,1.20
2023-02-24T04:42:33.396Z,1.00
2023-02-24T04:43:33.376Z,1.00
2023-02-24T04:44:33.398Z,1.00
2023-02-24T04:45:33.399Z,1.10
2023-02-24T04:46:33.423Z,1.00
2023-02-24T04:47:33.420Z,1.70
2023-02-24T04:48:33.459Z,1.30
2023-02-24T04:49:33.444Z,1.00
2023-02-24T04:50:33.470Z,1.60
2023-02-24T04:51:33.473Z,1.00
2023-02-24T04:52:33.487Z,1.10
2023-02-24T04:53:33.497Z,1.40
2023-02-24T04:54:33.512Z,1.00
2023-02-24T04:55:33.534Z,1.80
2023-02-24T04:56:33.537Z,1.10
2023-02-24T04:57:33.537Z,1.50
2023-02-24T04:58:33.563Z,16.00
2023-02-24T04:59:33.568Z,1.20
2023-02-24T05:00:33.644Z,1.10
2023-02-24T05:01:33.588Z,1.70
2023-02-24T05:02:33.622Z,1.00
2023-02-24T05:03:33.631Z,1.00
2023-02-24T05:04:33.689Z,1.00
2023-02-24T05:05:33.663Z,1.00
2023-02-24T05:06:33.656Z,1.00
2023-02-24T05:07:33.656Z,1.90
2023-02-24T05:08:33.696Z,1.00
2023-02-24T05:09:33.681Z,1.50
2023-02-24T05:10:33.702Z,1.50
2023-02-24T05:11:33.725Z,4.10
2023-02-24T05:12:33.728Z,1.90
2023-02-24T05:13:33.734Z,4.00
2023-02-24T05:14:33.749Z,1.00
2023-02-24T05:15:33.769Z,1.60
2023-02-24T05:16:33.835Z,1.00
2023-02-24T05:17:33.777Z,1.30
2023-02-24T05:18:33.796Z,2.00
2023-02-24T05:19:33.798Z,1.10
2023-02-24T05:20:33.823Z,1.00
2023-02-24T05:21:33.825Z,1.30
2023-02-24T05:22:33.846Z,1.40
2023-02-24T05:23:33.854Z,1.10
2023-02-24T05:24:33.876Z,1.10
2023-02-24T05:25:33.875Z,1.00
2023-02-24T05:26:33.889Z,1.00
2023-02-24T05:27:33.896Z,1.50
2023-02-24T05:28:33.917Z,1.60
2023-02-24T05:29:33.924Z,1.00
2023-02-24T05:30:33.969Z,1.80
2023-02-24T05:31:34.013Z,1.30
2023-02-24T05:32:34.091Z,1.20
2023-02-24T05:33:33.962Z,1.00
2023-02-24T05:34:33.986Z,1.10
2023-02-24T05:35:33.992Z,1.30
2023-02-24T05:36:34.007Z,1.00
2023-02-24T05:37:34.018Z,1.00
2023-02-24T05:38:34.031Z,1.60
2023-02-24T05:39:34.044Z,2.40
2023-02-24T05:40:34.055Z,1.00
2023-02-24T05:41:34.057Z,1.40
2023-02-24T05:42:34.076Z,1.00
2023-02-24T05:43:34.083Z,1.00
2023-02-24T05:44:34.098Z,1.00
2023-02-24T05:45:34.101Z,1.80
2023-02-24T05:46:34.158Z,1.00
2023-02-24T05:47:34.150Z,3.80
2023-02-24T05:48:34.142Z,1.00
2023-02-24T05:49:34.178Z,1.80
2023-02-24T05:50:34.169Z,1.00
2023-02-24T05:51:34.174Z,1.50
2023-02-24T05:52:34.192Z,1.00
2023-02-24T05:53:34.199Z,1.00
2023-02-24T05:54:34.212Z,1.00
2023-02-24T05:55:34.219Z,1.00
2023-02-24T05:56:34.245Z,1.20
2023-02-24T05:57:34.260Z,1.00
2023-02-24T05:58:34.262Z,1.30
2023-02-24T05:59:34.282Z,1.10
2023-02-24T06:00:34.301Z,1.00
2023-02-24T06:01:34.292Z,1.00
2023-02-24T06:02:34.306Z,1.00
2023-02-24T06:03:34.310Z,1.00
2023-02-24T06:04:34.332Z,1.00
2023-02-24T06:05:34.336Z,1.00
2023-02-24T06:06:34.356Z,1.10
2023-02-24T06:07:34.372Z,1.00
2023-02-24T06:08:34.379Z,1.00
2023-02-24T06:09:34.402Z,1.00
2023-02-24T06:10:34.413Z,1.00
2023-02-24T06:11:34.425Z,1.30
2023-02-24T06:12:34.458Z,1.00
2023-02-24T06:13:34.431Z,1.00
2023-02-24T06:14:34.447Z,1.00
2023-02-24T06:15:34.456Z,1.10
2023-02-24T06:16:34.514Z,1.00
2023-02-24T06:17:34.473Z,1.10
2023-02-24T06:18:34.494Z,1.00
2023-02-24T06:19:34.500Z,1.70
2023-02-24T06:20:34.525Z,0.90
2023-02-24T06:21:34.524Z,1.00
2023-02-24T06:22:34.548Z,1.00
2023-02-24T06:23:34.548Z,1.00
2023-02-24T06:24:34.593Z,1.00
2023-02-24T06:25:34.613Z,1.00
2023-02-24T06:26:34.599Z,1.00
2023-02-24T06:27:34.596Z,1.00
2023-02-24T06:28:34.622Z,1.20
2023-02-24T06:29:34.620Z,1.30
2023-02-24T06:30:34.697Z,1.00
2023-02-24T06:31:34.687Z,1.20
2023-02-24T06:32:34.809Z,1.00
2023-02-24T06:33:34.668Z,1.00
2023-02-24T06:34:34.687Z,1.00
2023-02-24T06:35:34.696Z,1.90
2023-02-24T06:36:34.716Z,1.00
2023-02-24T06:37:34.720Z,1.00
2023-02-24T06:38:34.734Z,1.00
2023-02-24T06:39:36.576Z,1.00
2023-02-24T06:40:34.760Z,1.10
2023-02-24T06:41:34.759Z,1.00
2023-02-24T06:42:34.782Z,1.00
2023-02-24T06:43:34.783Z,1.20
2023-02-24T06:44:34.809Z,3.10
2023-02-24T06:45:34.851Z,6.40
2023-02-24T06:46:34.832Z,1.00
2023-02-24T06:47:34.847Z,1.00
2023-02-24T06:48:34.859Z,1.10
2023-02-24T06:49:34.862Z,1.00
2023-02-24T06:50:34.874Z,1.00
2023-02-24T06:51:34.886Z,1.00
2023-02-24T06:52:34.903Z,1.00
2023-02-24T06:53:34.909Z,1.00
2023-02-24T06:54:34.946Z,1.00
2023-02-24T06:55:34.928Z,1.00
2023-02-24T06:56:34.950Z,0.90
2023-02-24T06:57:34.955Z,1.00
2023-02-24T06:58:34.976Z,1.00
2023-02-24T06:59:34.977Z,1.00
2023-02-24T07:00:35.017Z,1.00
2023-02-24T07:01:35.029Z,1.00
2023-02-24T07:02:35.020Z,1.00
2023-02-24T07:03:35.023Z,1.60
2023-02-24T07:04:35.078Z,1.80
2023-02-24T07:05:35.052Z,1.00
2023-02-24T07:06:35.079Z,1.00
2023-02-24T07:07:35.074Z,2.30
2023-02-24T07:08:35.086Z,1.20
2023-02-24T07:09:35.090Z,1.60
2023-02-24T07:10:35.133Z,1.00
2023-02-24T07:11:35.119Z,1.30
2023-02-24T07:12:35.150Z,1.10
2023-02-24T07:13:35.141Z,1.00
2023-02-24T07:14:35.181Z,1.00
2023-02-24T07:15:35.161Z,1.20
2023-02-24T07:16:35.243Z,1.30
2023-02-24T07:17:35.186Z,2.40
2023-02-24T07:18:35.214Z,1.20
2023-02-24T07:19:35.208Z,0.90
2023-02-24T07:20:35.239Z,1.30
2023-02-24T07:21:35.232Z,1.00
2023-02-24T07:22:35.255Z,1.00
2023-02-24T07:23:35.254Z,1.00
2023-02-24T07:24:35.272Z,1.00
2023-02-24T07:25:35.277Z,1.10
2023-02-24T07:26:35.313Z,1.40
2023-02-24T07:27:35.299Z,1.00
2023-02-24T07:28:35.318Z,2.30
2023-02-24T07:29:35.322Z,1.80
2023-02-24T07:30:35.460Z,1.00
2023-02-24T07:31:35.435Z,1.00
2023-02-24T07:32:35.472Z,1.00
2023-02-24T07:33:35.367Z,2.60
2023-02-24T07:34:35.390Z,1.30
2023-02-24T07:35:35.403Z,1.00
2023-02-24T07:36:35.412Z,0.90
2023-02-24T07:37:35.411Z,1.40
2023-02-24T07:38:35.447Z,1.40
2023-02-24T07:39:35.438Z,0.90
2023-02-24T07:40:35.486Z,1.00
2023-02-24T07:41:35.462Z,1.00
2023-02-24T07:42:35.514Z,1.30
2023-02-24T07:43:35.484Z,1.00
2023-02-24T07:44:35.499Z,1.00
2023-02-24T07:45:35.577Z,1.00
2023-02-24T07:46:35.561Z,1.70
2023-02-24T07:47:35.521Z,1.20
2023-02-24T07:48:35.545Z,1.00
2023-02-24T07:49:35.575Z,1.00
2023-02-24T07:50:35.566Z,1.00
2023-02-24T07:51:35.568Z,1.00
2023-02-24T07:52:35.590Z,1.00
2023-02-24T07:53:35.601Z,1.00
2023-02-24T07:54:35.631Z,1.00
2023-02-24T07:55:35.630Z,1.00
2023-02-24T07:56:35.631Z,1.00
2023-02-24T07:57:35.644Z,1.00
2023-02-24T07:58:35.661Z,1.30
2023-02-24T07:59:35.662Z,2.00
2023-02-24T08:00:35.678Z,2.50
2023-02-24T08:01:35.698Z,1.20
2023-02-24T08:02:35.747Z,1.30
2023-02-24T08:03:35.714Z,1.70
2023-02-24T08:04:35.726Z,1.00
2023-02-24T08:05:35.840Z,1.00
2023-02-24T08:06:35.755Z,1.30
2023-02-24T08:07:35.752Z,1.00
2023-02-24T08:08:35.769Z,1.00
2023-02-24T08:09:35.778Z,1.00
2023-02-24T08:10:35.796Z,1.80
2023-02-24T08:11:35.848Z,1.00
2023-02-24T08:12:35.814Z,1.10
2023-02-24T08:13:35.822Z,1.00
2023-02-24T08:14:35.842Z,1.00
2023-02-24T08:15:35.875Z,1.20
2023-02-24T08:16:35.860Z,1.00
2023-02-24T08:17:35.865Z,1.00
2023-02-24T08:18:35.911Z,1.00
2023-02-24T08:19:35.891Z,1.00
2023-02-24T08:20:35.907Z,1.00
2023-02-24T08:21:35.934Z,1.00
2023-02-24T08:22:35.945Z,1.00
2023-02-24T08:23:35.942Z,1.00
2023-02-24T08:24:35.968Z,1.50
2023-02-24T08:25:36.355Z,1.00
2023-02-24T08:26:35.987Z,1.70
2023-02-24T08:27:35.984Z,4.00
2023-02-24T08:28:35.988Z,3.70
2023-02-24T08:29:36.007Z,1.30
2023-02-24T08:30:36.048Z,1.00
2023-02-24T08:31:36.148Z,1.00
2023-02-24T08:32:36.219Z,1.00
2023-02-24T08:33:36.052Z,1.30
2023-02-24T08:34:36.056Z,1.90
2023-02-24T08:35:36.100Z,1.00
2023-02-24T08:36:36.075Z,1.60
2023-02-24T08:37:36.097Z,1.00
2023-02-24T08:38:36.118Z,1.20
2023-02-24T08:39:36.117Z,1.00
2023-02-24T08:40:36.122Z,1.20
2023-02-24T08:41:36.143Z,1.00
2023-02-24T08:42:36.148Z,1.00
2023-02-24T08:43:36.174Z,1.00
2023-02-24T08:44:36.167Z,1.00
2023-02-24T08:45:36.191Z,1.00
2023-02-24T08:46:36.223Z,1.10
2023-02-24T08:47:36.282Z,1.00
2023-02-24T08:48:36.214Z,1.00
2023-02-24T08:49:36.243Z,1.10
2023-02-24T08:50:36.244Z,1.00
2023-02-24T08:51:36.281Z,1.00
2023-02-24T08:52:36.261Z,1.30
2023-02-24T08:53:36.297Z,1.00
2023-02-24T08:54:36.293Z,1.80
2023-02-24T08:55:36.331Z,1.00
2023-02-24T08:56:36.302Z,2.60
2023-02-24T08:57:36.328Z,1.00
2023-02-24T08:58:36.329Z,1.90
2023-02-24T08:59:36.353Z,1.40
2023-02-24T09:00:36.410Z,1.00
2023-02-24T09:01:36.391Z,2.20
2023-02-24T09:02:36.378Z,1.40
2023-02-24T09:03:36.402Z,1.00
2023-02-24T09:04:36.448Z,1.90
2023-02-24T09:05:36.440Z,1.00
2023-02-24T09:06:36.443Z,1.00
2023-02-24T09:07:36.449Z,1.00
2023-02-24T09:08:36.455Z,1.00
2023-02-24T09:09:36.465Z,1.20
2023-02-24T09:10:38.267Z,1.00
2023-02-24T09:11:36.495Z,1.20
2023-02-24T09:12:36.487Z,1.00
2023-02-24T09:13:36.519Z,1.00
2023-02-24T09:14:36.677Z,1.00
2023-02-24T09:15:36.558Z,1.00
2023-02-24T09:16:36.561Z,1.20
2023-02-24T09:17:36.565Z,1.70
2023-02-24T09:18:36.566Z,1.00
2023-02-24T09:19:36.585Z,2.10
2023-02-24T09:20:36.586Z,1.50
2023-02-24T09:21:36.604Z,2.40
2023-02-24T09:22:36.603Z,1.00
2023-02-24T09:23:36.662Z,1.00
2023-02-24T09:24:36.634Z,1.00
2023-02-24T09:25:36.671Z,1.00
2023-02-24T09:26:36.654Z,1.00
2023-02-24T09:27:36.696Z,1.20
2023-02-24T09:28:36.688Z,1.10
2023-02-24T09:29:36.701Z,7.00
2023-02-24T09:30:36.829Z,1.00
2023-02-24T09:31:37.885Z,2.50
2023-02-24T09:32:36.834Z,1.00
2023-02-24T09:33:36.739Z,1.70
2023-02-24T09:34:36.745Z,1.00
2023-02-24T09:35:36.839Z,1.10
2023-02-24T09:36:36.779Z,1.00
2023-02-24T09:37:36.793Z,4.40
2023-02-24T09:38:36.804Z,1.00
2023-02-24T09:39:36.810Z,1.00
2023-02-24T09:40:36.816Z,1.30
2023-02-24T09:41:36.829Z,1.00
2023-02-24T09:42:37.327Z,2.00
2023-02-24T09:43:36.857Z,1.40
2023-02-24T09:44:36.858Z,1.80
2023-02-24T09:45:37.006Z,1.40
2023-02-24T09:46:37.035Z,1.00
2023-02-24T09:47:36.905Z,1.00
2023-02-24T09:48:36.909Z,1.50
2023-02-24T09:49:36.936Z,1.10
2023-02-24T09:51:00.922Z,1.40
2023-02-24T09:51:36.958Z,1.00
2023-02-24T09:52:36.964Z,1.60
2023-02-24T09:53:36.982Z,1.00
2023-02-24T09:54:36.988Z,1.00
2023-02-24T09:55:37.008Z,1.00
2023-02-24T09:56:37.185Z,1.00
2023-02-24T09:57:37.061Z,1.00
2023-02-24T09:58:43.757Z,1.10
2023-02-24T09:59:37.066Z,1.40
2023-02-24T10:00:37.065Z,1.00
2023-02-24T10:01:37.190Z,1.00
2023-02-24T10:02:37.109Z,1.60
2023-02-24T10:03:37.134Z,1.40
2023-02-24T10:04:37.117Z,1.00
2023-02-24T10:05:37.140Z,1.00
2023-02-24T10:06:37.170Z,1.20
2023-02-24T10:07:37.165Z,1.50
2023-02-24T10:08:37.173Z,1.10
2023-02-24T10:09:40.812Z,1.20
2023-02-24T10:10:37.202Z,34.10
2023-02-24T10:11:37.224Z,36.60
2023-02-24T10:12:37.247Z,42.00
2023-02-24T10:13:37.247Z,34.80
2023-02-24T10:14:43.149Z,38.10
2023-02-24T10:15:37.832Z,39.10
2023-02-24T10:16:37.312Z,38.30
2023-02-24T10:17:37.298Z,38.50
2023-02-24T10:18:37.331Z,37.00
2023-02-24T10:19:37.332Z,36.90
2023-02-24T10:20:37.378Z,36.20
2023-02-24T10:21:37.352Z,37.40
2023-02-24T10:22:37.360Z,38.20
2023-02-24T10:23:37.390Z,39.30
2023-02-24T10:24:37.403Z,39.40
2023-02-24T10:25:37.411Z,37.70
2023-02-24T10:26:37.421Z,36.50
2023-02-24T10:27:37.442Z,39.30
2023-02-24T10:28:37.447Z,32.50
2023-02-24T10:29:37.466Z,35.20
2023-02-24T10:30:37.583Z,36.10
2023-02-24T10:31:37.649Z,35.30
2023-02-24T10:32:37.538Z,39.60
2023-02-24T10:33:37.522Z,37.00
2023-02-24T10:34:37.528Z,34.10
2023-02-24T10:35:37.557Z,32.70
2023-02-24T10:36:37.555Z,31.00
2023-02-24T10:37:37.572Z,29.00
2023-02-24T10:38:37.580Z,29.70
2023-02-24T10:39:37.604Z,29.00
2023-02-24T10:40:37.611Z,31.30
2023-02-24T10:41:37.664Z,29.30
2023-02-24T10:42:37.639Z,30.40
2023-02-24T10:43:37.695Z,30.10
2023-02-24T10:44:37.663Z,28.90
2023-02-24T10:45:37.687Z,31.70
2023-02-24T10:46:42.645Z,29.70
2023-02-24T10:47:37.726Z,29.10
2023-02-24T10:48:42.065Z,27.70
2023-02-24T10:49:37.744Z,27.40
2023-02-24T10:50:41.410Z,29.40
2023-02-24T10:51:37.778Z,29.40
2023-02-24T10:52:37.775Z,27.00
2023-02-24T10:53:37.816Z,28.90
2023-02-24T10:54:37.809Z,28.00
2023-02-24T10:55:37.836Z,28.00
2023-02-24T10:56:37.836Z,26.60
2023-02-24T10:57:44.740Z,28.60
2023-02-24T10:58:37.871Z,24.50
2023-02-24T10:59:37.953Z,27.50
2023-02-24T11:00:37.921Z,25.90
2023-02-24T11:01:38.041Z,23.80
2023-02-24T11:02:38.039Z,25.70
2023-02-24T11:03:37.954Z,26.70
2023-02-24T11:04:37.955Z,26.40
2023-02-24T11:05:37.986Z,23.70
2023-02-24T11:06:37.992Z,21.50
2023-02-24T11:07:38.035Z,22.00
2023-02-24T11:08:38.022Z,19.60
2023-02-24T11:09:38.045Z,20.50
2023-02-24T11:10:38.046Z,22.90
2023-02-24T11:11:38.074Z,21.30
2023-02-24T11:12:38.081Z,21.00
2023-02-24T11:13:38.105Z,19.50
2023-02-24T11:14:38.110Z,20.40
2023-02-24T11:15:38.179Z,21.20
2023-02-24T11:16:38.141Z,20.60
2023-02-24T11:17:38.262Z,19.70
2023-02-24T11:18:38.169Z,19.50
2023-02-24T11:19:38.217Z,20.00
2023-02-24T11:20:48.542Z,19.60
2023-02-24T11:21:38.230Z,22.70
2023-02-24T11:22:38.234Z,17.70
2023-02-24T11:23:38.277Z,18.20
2023-02-24T11:24:38.256Z,19.20
2023-02-24T11:25:38.286Z,17.90
2023-02-24T11:26:38.292Z,19.10
2023-02-24T11:27:38.318Z,17.90
2023-02-24T11:28:38.331Z,18.00
2023-02-24T11:29:38.366Z,18.20
2023-02-24T11:30:38.438Z,20.00
2023-02-24T11:31:38.527Z,16.20
2023-02-24T11:32:38.515Z,16.60
2023-02-24T11:33:38.412Z,15.30
2023-02-24T11:34:38.414Z,14.10
2023-02-24T11:35:38.442Z,14.90
2023-02-24T11:36:38.450Z,14.20
2023-02-24T11:37:39.279Z,14.30
2023-02-24T11:38:38.483Z,14.10
2023-02-24T11:39:38.511Z,14.00
2023-02-24T11:40:38.513Z,14.10
2023-02-24T11:41:38.566Z,13.30
2023-02-24T11:42:38.552Z,12.50
2023-02-24T11:43:38.631Z,11.40
2023-02-24T11:44:38.625Z,11.70
2023-02-24T11:45:38.607Z,12.00
2023-02-24T11:46:38.680Z,12.30
2023-02-24T11:47:38.647Z,11.60
2023-02-24T11:48:38.680Z,11.40
2023-02-24T11:49:38.682Z,11.40
2023-02-24T11:50:38.695Z,14.90
2023-02-24T11:51:38.715Z,11.50
2023-02-24T11:52:38.744Z,12.40
2023-02-24T11:53:38.752Z,11.10
2023-02-24T11:54:38.763Z,10.20
2023-02-24T11:55:38.809Z,13.70
2023-02-24T11:56:38.801Z,12.20
2023-02-24T11:57:38.842Z,9.50
2023-02-24T11:58:38.842Z,11.10
2023-02-24T11:59:38.865Z,11.00
2023-02-24T12:00:38.877Z,9.40
2023-02-24T12:01:38.905Z,8.60
2023-02-24T12:02:38.936Z,10.60
2023-02-24T12:03:38.947Z,10.60
2023-02-24T12:04:38.956Z,9.00
2023-02-24T12:05:39.026Z,10.40
2023-02-24T12:06:38.993Z,8.20
2023-02-24T12:07:39.035Z,8.80
2023-02-24T12:08:39.034Z,9.00
2023-02-24T12:09:39.060Z,8.50
2023-02-24T12:10:39.090Z,7.60
2023-02-24T12:11:39.110Z,8.50
2023-02-24T12:12:39.115Z,9.30
2023-02-24T12:13:39.143Z,7.00
2023-02-24T12:14:39.151Z,7.40
2023-02-24T12:15:39.222Z,7.60
2023-02-24T12:16:39.219Z,8.20
2023-02-24T12:17:39.215Z,7.30
2023-02-24T12:18:39.256Z,7.90
2023-02-24T12:19:39.255Z,8.40
2023-02-24T12:20:39.268Z,8.50
2023-02-24T12:21:39.303Z,7.10
2023-02-24T12:22:39.308Z,6.10
2023-02-24T12:23:39.418Z,4.60
2023-02-24T12:24:39.351Z,3.50
2023-02-24T12:25:39.377Z,5.40
2023-02-24T12:26:39.392Z,4.00
2023-02-24T12:27:39.421Z,5.20
2023-02-24T12:28:39.430Z,4.70
2023-02-24T12:29:39.455Z,4.00
2023-02-24T12:30:39.496Z,3.40
2023-02-24T12:31:39.596Z,4.60
2023-02-24T12:32:39.611Z,3.10
2023-02-24T12:33:39.541Z,4.80
2023-02-24T12:34:39.553Z,3.40
2023-02-24T12:35:39.579Z,3.40
2023-02-24T12:36:39.613Z,5.10
2023-02-24T12:37:39.618Z,4.40
2023-02-24T12:38:39.636Z,2.50
2023-02-24T12:39:39.681Z,3.40
2023-02-24T12:40:39.687Z,3.30
2023-02-24T12:41:39.697Z,4.00
2023-02-24T12:42:39.762Z,4.90
2023-02-24T12:43:39.733Z,5.50
2023-02-24T12:44:39.757Z,4.20
2023-02-24T12:45:39.806Z,4.90
2023-02-24T12:46:39.798Z,4.40
2023-02-24T12:47:39.813Z,3.30
2023-02-24T12:48:39.846Z,4.50
2023-02-24T12:49:39.877Z,4.00
2023-02-24T12:50:39.881Z,3.10
2023-02-24T12:51:39.892Z,3.20
2023-02-24T12:52:39.928Z,5.30
2023-02-24T12:53:39.929Z,5.20
2023-02-24T12:54:39.959Z,3.20
2023-02-24T12:55:39.982Z,3.40
2023-02-24T12:56:39.994Z,4.30
2023-02-24T12:57:40.012Z,4.80
2023-02-24T12:58:40.082Z,4.50
2023-02-24T12:59:40.097Z,3.60
2023-02-24T13:00:40.088Z,3.80
2023-02-24T13:01:40.157Z,4.30
2023-02-24T13:02:40.367Z,4.30
2023-02-24T13:03:40.128Z,7.50
2023-02-24T13:04:40.152Z,6.40
2023-02-24T13:05:40.165Z,3.30
2023-02-24T13:06:40.193Z,5.40
2023-02-24T13:07:40.211Z,3.30
2023-02-24T13:08:40.235Z,7.00
2023-02-24T13:09:40.273Z,4.50
2023-02-24T13:10:40.271Z,3.90
2023-02-24T13:11:40.282Z,3.60
2023-02-24T13:12:40.309Z,4.20
2023-02-24T13:13:40.320Z,4.00
2023-02-24T13:14:40.345Z,5.50